Grand Prairie, TX

6:01 PM CDT on September 24, 2016 (GMT -0500)
Grand Prairie | | Change Station

Elev 663 ft 32.70 °N, 97.10 °W | Updated 2 minutes ago

Clear
Clear
87.0 °F
Feels Like 96 °F
N
5.0
Wind Variable Wind from SE
Gusts 11.0 mph

Today
High -- | Low -- °F
--% Chance of Precip.
Yesterday
High -- | Low -- °F
Precip. -- in
Pressure 29.90 in
Visibility 10.0 miles
Clouds Clear
Heat Index 96 °F
Dew Point 75 °F
Humidity 67%
Rainfall 0.63 in
Snow Depth Not available.
7:17 AM 7:21 PM
Waning Crescent, 34% visible
METAR KGPM 242250Z 11005KT 10SM SKC 31/22 A2990
Pressure 29.90 in
Visibility 10.0 miles
Clouds Clear
Heat Index 96 °F
Dew Point 75 °F
Humidity 67%
Rainfall 0.63 in
Snow Depth Not available.
7:17 AM 7:21 PM
Waning Crescent, 34% visible
METAR KGPM 242250Z 11005KT 10SM SKC 31/22 A2990

10-Day Weather Forecast

Almanac

Astronomy

Sep. 24, 2016 Rise Set
Actual Time
Civil Twilight
Nautical Twilight
Astronomical Twilight
Moon
Length of Visible Light
Length of Day
Tomorrow will be .
, % of the Moon is Illuminated

Today's Extremes

State Highs State Lows

Community

WunderPhotos

Upload Photos

1,941,452 photos uploaded!

WunderBlog® & News

Nearby

Air Quality

  Air Quality AQ Index Pollutant
Not available.

Snow Depth

Station Depth Elevation

Earthquake Activity

City Distance Mag. Time & Date
Minimum magnitude displayed is 2.5.

Coastal Water Temperatures

Place Temperature

Stations

Nearby Weather Stations

Station Location Temp. Windchill Dew Point Humidity Wind Precip. Elev Updated Type
                   

Watches & Warnings

There are currently no watches in effect.